首页
METAR-TAF:

METAR-TAF

机场 :

Lynchburg Regional Airport (Preston Glenn Field)

林奇堡, 弗吉尼亚州, 美国

纬度: 37-19-15N, 经度: 079-12-24W, 海拔: 285米

当前天气观测

该预报发布于19分钟前的20:54 UTC
风速10节,风向东北
温度 8°C
湿度 71%
气压 1017 hPa
能見度: 16.1公里
阴天层高于1900英尺

METAR: KLYH 172054Z 04010KT 10SM OVC019 08/03 A3003 RMK AO2 SLP173 T00780028 56020

时间: 16:13 (21:13 UTC)

预报

该预报发布于1小时和13分钟前的20:00 UTC
预报有效从17日的 20点(UTC)到 18日的 18点(UTC)
风速8节,风向北转东北
能見度: 10公里
阴天层高于2500英尺
从 17日的 2100点(UTC)
风速5节,风向北转东北
能見度: 10公里
多云层高于3500英尺
从 18日的 0600点(UTC)
风速3节,风向多变
能見度: 10公里
阴天层高于1500英尺
从 18日的 0900点(UTC)
风速3节,风向多变
能見度: 10公里
阴天层高于700英尺
从 18日的 1400点(UTC)
风速4节,风向
能見度: 10公里
多云层高于2500英尺

TAF: KLYH 172000Z 1720/1818 03008KT P6SM OVC025 FM172100 03005KT P6SM BKN035 FM180600 VRB03KT P6SM OVC015 FM180900 VRB03KT P6SM OVC007 FM181400 01004KT P6SM BKN025

超过4000个机场的气象观测和天气预报(METAR&TAF报告)。

可查询的气象台以黄色和红色小点在地图上表示。

将鼠标移到小点上方,可查看气象台名称。

然后点击查看天气观测和预报。

如需切换地图:点击带黑十字的绿色按钮放大地图;点击带横线的绿色按钮缩小地图;或者点击绿色箭头查看邻近地区的地图。


METAR-TAF: